Time;durP1;ratioP1;P1;durP2;ratioP2;P2;SDS_P1;SDS_P2;PMS_P1;PMS_P2;Temp;Humidity;BMP_temperature;BMP_pressure;BME280_temperature;BME280_humidity;BME280_pressure;Samples;Min_cycle;Max_cycle;Signal;HPM_P1;HPM_P2
2023/03/29 00:00:22;;;;;;;5.18;3.10;;;2.60;99.90;;;;;;4996298;28;20990;-58
2023/03/29 00:02:48;;;;;;;8.02;3.70;;;2.70;99.90;;;;;;5002912;28;20033;-57
2023/03/29 00:05:16;;;;;;;6.28;3.08;;;2.70;99.90;;;;;;4996987;28;20026;-58
2023/03/29 00:07:42;;;;;;;6.57;3.15;;;2.70;99.90;;;;;;4997244;28;20065;-59
2023/03/29 00:10:09;;;;;;;7.40;3.28;;;2.70;99.90;;;;;;5000798;28;20577;-58
2023/03/29 00:12:39;;;;;;;6.65;2.85;;;2.70;99.90;;;;;;4997304;28;20530;-59
2023/03/29 00:15:07;;;;;;;5.32;2.80;;;2.70;99.90;;;;;;5000516;28;20133;-58
2023/03/29 00:17:32;;;;;;;7.82;3.55;;;2.70;99.90;;;;;;4996949;28;20046;-60
2023/03/29 00:19:58;;;;;;;7.85;3.50;;;2.80;99.90;;;;;;4998933;28;20112;-58
2023/03/29 00:22:24;;;;;;;6.35;3.63;;;2.80;99.90;;;;;;4997436;28;20161;-58
2023/03/29 00:24:53;;;;;;;4.80;2.97;;;2.80;99.90;;;;;;4999844;28;20121;-59
2023/03/29 00:27:20;;;;;;;9.38;4.15;;;2.80;99.90;;;;;;4999852;28;20033;-57
2023/03/29 00:29:46;;;;;;;5.95;2.38;;;2.80;99.90;;;;;;5000863;28;20030;-59
2023/03/29 00:32:12;;;;;;;4.38;2.92;;;2.80;99.90;;;;;;4999061;28;20414;-57
2023/03/29 00:34:38;;;;;;;4.75;2.72;;;2.80;99.90;;;;;;4999332;28;20649;-59
2023/03/29 00:37:07;;;;;;;3.97;3.08;;;2.90;99.90;;;;;;4997043;28;20034;-58
2023/03/29 00:39:33;;;;;;;9.38;2.60;;;2.90;99.90;;;;;;4997398;28;20038;-58
2023/03/29 00:41:59;;;;;;;7.22;2.95;;;2.90;99.90;;;;;;4996330;28;20038;-58
2023/03/29 00:44:56;;;;;;;4.75;3.47;;;2.90;99.90;;;;;;5000344;28;20390;-58
2023/03/29 00:47:33;;;;;;;5.78;3.40;;;2.90;99.90;;;;;;4993723;28;20438;-57
2023/03/29 00:50:11;;;;;;;6.72;2.72;;;2.90;99.90;;;;;;4995421;28;20040;-57
2023/03/29 00:52:38;;;;;;;8.40;3.58;;;2.90;99.90;;;;;;4997311;28;20109;-56
2023/03/29 00:55:09;;;;;;;9.35;2.53;;;2.80;99.90;;;;;;4997714;28;20042;-57
2023/03/29 00:57:38;;;;;;;7.10;2.85;;;2.90;99.90;;;;;;4996089;28;20646;-58
2023/03/29 01:00:08;;;;;;;7.80;2.65;;;2.80;99.90;;;;;;4997966;28;20035;-58
2023/03/29 01:02:38;;;;;;;5.93;3.03;;;2.90;99.90;;;;;;4997266;28;20435;-58
2023/03/29 01:05:13;;;;;;;4.97;3.08;;;2.90;99.90;;;;;;4998741;28;20034;-58
2023/03/29 01:07:56;;;;;;;8.95;3.17;;;2.90;99.90;;;;;;4996990;28;20037;-59
2023/03/29 01:10:41;;;;;;;8.10;3.13;;;2.90;99.90;;;;;;4997036;28;20046;-58
2023/03/29 01:13:12;;;;;;;4.78;2.95;;;3.00;99.90;;;;;;4996017;28;20066;-57
2023/03/29 01:15:40;;;;;;;6.65;3.50;;;3.00;99.90;;;;;;4995640;28;20065;-57
2023/03/29 01:18:07;;;;;;;5.88;3.58;;;3.00;99.90;;;;;;4997968;28;20057;-59
2023/03/29 01:21:19;;;;;;;4.38;3.58;;;3.00;99.90;;;;;;4994849;28;20088;-59
2023/03/29 01:24:05;;;;;;;;;;;2.90;99.90;;;;;;4996969;28;20042;-59
2023/03/29 01:26:54;;;;;;;6.10;4.50;;;2.90;99.90;;;;;;4996584;28;19956;-58
2023/03/29 01:29:35;;;;;;;8.20;4.20;;;2.90;99.90;;;;;;4997420;28;20060;-57
2023/03/29 01:32:16;;;;;;;8.27;4.40;;;2.90;99.90;;;;;;4993483;28;20051;-58
2023/03/29 01:35:10;;;;;;;6.78;3.90;;;3.00;99.90;;;;;;4996355;28;20080;-60
2023/03/29 01:37:42;;;;;;;5.22;4.07;;;2.90;99.90;;;;;;4995455;28;20046;-58
2023/03/29 01:40:08;;;;;;;5.13;4.00;;;3.00;99.90;;;;;;4992103;28;20042;-59
2023/03/29 01:43:10;;;;;;;10.38;4.20;;;3.00;99.90;;;;;;4996485;28;20030;-59
2023/03/29 01:45:59;;;;;;;7.88;4.20;;;3.10;99.90;;;;;;4999816;28;20534;-59
2023/03/29 01:48:28;;;;;;;4.75;3.60;;;3.10;99.90;;;;;;4995773;28;20424;-58
2023/03/29 01:51:03;;;;;;;7.72;3.83;;;3.10;99.90;;;;;;4997578;28;20110;-58
2023/03/29 01:53:32;;;;;;;6.50;3.97;;;3.10;99.90;;;;;;4995848;28;20458;-59
2023/03/29 01:56:11;;;;;;;6.05;4.15;;;3.10;99.90;;;;;;4992004;28;20026;-57
2023/03/29 01:58:43;;;;;;;7.50;4.28;;;3.20;99.90;;;;;;4997770;28;20064;-59
2023/03/29 02:01:12;;;;;;;6.10;4.55;;;3.20;99.90;;;;;;4998893;28;20038;-57
2023/03/29 02:03:42;;;;;;;5.65;4.57;;;3.20;99.90;;;;;;4997487;28;20025;-60
2023/03/29 02:06:10;;;;;;;9.13;4.57;;;3.20;99.90;;;;;;4993199;28;20597;-58
2023/03/29 02:08:39;;;;;;;7.25;5.13;;;3.20;99.90;;;;;;4994906;28;20042;-57
2023/03/29 02:11:06;;;;;;;6.90;4.57;;;3.20;99.90;;;;;;4996121;28;20077;-58
2023/03/29 02:13:32;;;;;;;6.95;5.35;;;3.10;99.90;;;;;;4992399;28;20041;-58
2023/03/29 02:16:01;;;;;;;7.45;5.00;;;3.10;99.90;;;;;;4996647;28;20045;-58
2023/03/29 02:18:28;;;;;;;5.20;4.70;;;3.10;99.90;;;;;;4999156;28;20057;-57
2023/03/29 02:20:56;;;;;;;5.75;5.07;;;3.00;99.90;;;;;;4996346;28;20076;-58
2023/03/29 02:23:33;;;;;;;7.30;4.68;;;3.00;99.90;;;;;;4989995;28;20031;-58
2023/03/29 02:26:02;;;;;;;6.13;5.15;;;3.00;99.90;;;;;;4996255;28;20041;-59
2023/03/29 02:28:29;;;;;;;6.68;5.20;;;3.00;99.90;;;;;;4996241;28;20845;-60
2023/03/29 02:31:11;;;;;;;7.00;4.72;;;2.90;99.90;;;;;;4999363;28;20046;-58
2023/03/29 02:33:40;;;;;;;5.22;4.53;;;2.90;99.90;;;;;;4996407;28;20538;-58
2023/03/29 02:36:19;;;;;;;5.50;4.95;;;2.80;99.90;;;;;;4993448;28;20046;-58
2023/03/29 02:38:46;;;;;;;10.10;5.68;;;2.80;99.90;;;;;;4995757;28;20125;-56
2023/03/29 02:41:13;;;;;;;9.20;5.53;;;2.80;99.90;;;;;;4995009;28;20054;-59
2023/03/29 02:43:41;;;;;;;6.65;5.10;;;2.80;99.90;;;;;;4993447;28;20034;-59
2023/03/29 02:46:07;;;;;;;9.48;5.65;;;2.80;99.90;;;;;;4997623;28;20128;-58
2023/03/29 02:48:35;;;;;;;10.52;5.53;;;2.80;99.90;;;;;;4997764;28;20034;-58
2023/03/29 02:51:07;;;;;;;9.32;5.20;;;2.70;99.90;;;;;;4996061;28;20073;-59
2023/03/29 02:53:41;;;;;;;10.07;5.53;;;2.70;99.90;;;;;;4993756;28;20038;-58
2023/03/29 02:56:07;;;;;;;9.15;5.60;;;2.70;99.90;;;;;;4991907;28;20038;-58
2023/03/29 02:58:35;;;;;;;8.75;5.72;;;2.70;99.90;;;;;;4993615;28;20085;-58
2023/03/29 03:01:04;;;;;;;8.90;5.10;;;2.70;99.90;;;;;;4998171;28;20042;-60
2023/03/29 03:03:30;;;;;;;10.93;6.75;;;2.70;99.90;;;;;;4996049;28;20039;-59
2023/03/29 03:05:56;;;;;;;8.50;6.53;;;2.70;99.90;;;;;;4996853;28;20029;-57
2023/03/29 03:08:22;;;;;;;8.15;6.03;;;2.70;99.90;;;;;;4996998;28;20113;-59
2023/03/29 03:10:48;;;;;;;8.07;6.20;;;2.70;99.90;;;;;;4994600;28;20125;-58
2023/03/29 03:13:14;;;;;;;8.75;6.68;;;2.80;99.90;;;;;;4995286;28;20562;-58
2023/03/29 03:15:41;;;;;;;8.82;6.10;;;2.80;99.90;;;;;;4998327;28;20129;-59
2023/03/29 03:18:08;;;;;;;8.57;5.40;;;2.80;99.90;;;;;;5000905;28;20388;-59
2023/03/29 03:20:34;;;;;;;7.40;5.80;;;2.80;99.90;;;;;;4997884;28;20104;-58
2023/03/29 03:23:02;;;;;;;8.48;5.88;;;2.80;99.90;;;;;;5001027;28;20032;-59
2023/03/29 03:25:28;;;;;;;8.50;5.65;;;2.80;99.90;;;;;;4998796;28;20041;-57
2023/03/29 03:27:54;;;;;;;9.95;5.60;;;2.80;99.90;;;;;;5000628;28;20026;-60
2023/03/29 03:30:20;;;;;;;6.78;5.40;;;2.90;99.90;;;;;;5001030;28;20034;-59
2023/03/29 03:32:46;;;;;;;7.88;5.35;;;2.90;99.90;;;;;;4999221;28;20026;-59
2023/03/29 03:35:12;;;;;;;6.95;5.85;;;2.90;99.90;;;;;;4998502;28;20482;-59
2023/03/29 03:37:39;;;;;;;14.82;7.82;;;2.90;99.90;;;;;;4997199;28;20505;-60
2023/03/29 03:40:10;;;;;;;13.80;5.68;;;2.80;99.90;;;;;;4997111;28;20034;-58
2023/03/29 03:42:37;;;;;;;;;;;2.80;99.90;;;;;;5001441;28;20040;-59
2023/03/29 03:45:03;;;;;;;6.68;4.85;;;2.80;99.90;;;;;;4998382;28;19924;-58
2023/03/29 03:47:29;;;;;;;11.00;5.85;;;2.80;99.90;;;;;;4996533;28;20399;-59
2023/03/29 03:49:55;;;;;;;9.63;5.60;;;2.70;99.90;;;;;;4997287;28;20036;-60
2023/03/29 03:52:21;;;;;;;9.52;5.90;;;2.70;99.90;;;;;;4999952;28;20496;-58
2023/03/29 03:54:48;;;;;;;7.07;5.38;;;2.80;99.90;;;;;;5001859;28;20466;-58
2023/03/29 03:57:14;;;;;;;9.88;6.55;;;2.70;99.90;;;;;;4997773;28;20085;-59
2023/03/29 03:59:40;;;;;;;13.18;6.05;;;2.70;99.90;;;;;;4998565;28;20430;-58
2023/03/29 04:02:06;;;;;;;11.35;5.80;;;2.70;99.90;;;;;;4994697;28;20038;-59
2023/03/29 04:04:32;;;;;;;6.75;5.78;;;2.70;99.90;;;;;;4997554;28;20030;-58
2023/03/29 04:07:01;;;;;;;6.45;5.63;;;2.70;99.90;;;;;;4998815;28;20410;-58
2023/03/29 04:09:31;;;;;;;6.53;5.75;;;2.70;99.90;;;;;;4996586;28;20064;-57
2023/03/29 04:11:58;;;;;;;7.57;5.60;;;2.70;99.90;;;;;;4997163;28;20045;-60
2023/03/29 04:14:24;;;;;;;10.32;4.80;;;2.70;99.90;;;;;;4997546;28;20728;-57
2023/03/29 04:16:51;;;;;;;6.50;5.68;;;2.70;99.90;;;;;;4994101;28;20065;-58
2023/03/29 04:19:17;;;;;;;6.28;5.65;;;2.70;99.90;;;;;;5001648;28;20026;-59
2023/03/29 04:21:44;;;;;;;6.10;5.30;;;2.70;99.90;;;;;;4999014;28;20592;-59
2023/03/29 04:24:10;;;;;;;8.32;5.75;;;2.70;99.90;;;;;;4997467;28;20030;-59
2023/03/29 04:26:36;;;;;;;11.30;5.57;;;2.70;99.90;;;;;;5000994;28;20080;-58
2023/03/29 04:29:03;;;;;;;9.98;5.05;;;2.80;99.90;;;;;;4996135;28;20021;-57
2023/03/29 04:31:29;;;;;;;8.02;5.85;;;2.70;99.90;;;;;;4998374;28;20061;-59
2023/03/29 04:33:55;;;;;;;6.18;5.15;;;2.70;99.90;;;;;;4997840;28;20445;-59
2023/03/29 04:36:21;;;;;;;7.50;5.22;;;2.70;99.90;;;;;;5000607;28;20034;-59
2023/03/29 04:38:47;;;;;;;7.55;5.13;;;2.70;99.90;;;;;;4995378;28;20050;-56
2023/03/29 04:41:14;;;;;;;9.68;5.50;;;2.70;99.90;;;;;;5001536;28;20026;-58
2023/03/29 04:43:40;;;;;;;7.75;6.05;;;2.70;99.90;;;;;;5000490;28;20027;-59
2023/03/29 04:46:06;;;;;;;5.38;4.88;;;2.70;99.90;;;;;;5004210;28;20411;-60
2023/03/29 04:48:32;;;;;;;10.23;5.57;;;2.70;99.90;;;;;;4996892;28;20092;-57
2023/03/29 04:50:59;;;;;;;6.97;6.10;;;2.70;99.90;;;;;;5000974;28;20538;-57
2023/03/29 04:53:25;;;;;;;14.20;5.35;;;2.70;99.90;;;;;;4998630;28;20022;-58
2023/03/29 04:55:54;;;;;;;10.73;5.85;;;2.70;99.90;;;;;;4996527;28;20034;-59
2023/03/29 04:58:20;;;;;;;11.70;6.25;;;2.70;99.90;;;;;;4998186;28;20066;-57
2023/03/29 05:00:46;;;;;;;9.50;6.10;;;2.70;99.90;;;;;;5000300;28;20038;-59
2023/03/29 05:03:13;;;;;;;13.32;6.75;;;2.70;99.90;;;;;;5004190;28;20049;-58
2023/03/29 05:05:40;;;;;;;11.15;6.13;;;2.70;99.90;;;;;;4999319;28;20042;-57
2023/03/29 05:08:06;;;;;;;13.90;6.47;;;2.70;99.90;;;;;;4999362;28;20033;-59
2023/03/29 05:10:31;;;;;;;10.68;6.55;;;2.70;99.90;;;;;;4998130;28;20034;-58
2023/03/29 05:12:57;;;;;;;8.30;5.80;;;2.70;99.90;;;;;;4996119;28;20027;-58
2023/03/29 05:15:23;;;;;;;6.60;5.57;;;2.70;99.90;;;;;;4997218;28;20046;-59
2023/03/29 05:17:48;;;;;;;7.72;4.80;;;2.70;99.90;;;;;;4996160;28;20049;-59
2023/03/29 05:20:15;;;;;;;7.88;5.00;;;2.80;99.90;;;;;;4998309;28;20042;-59
2023/03/29 05:22:40;;;;;;;12.35;5.00;;;2.80;99.90;;;;;;4994307;28;20487;-59
2023/03/29 05:25:07;;;;;;;13.25;5.93;;;2.90;99.90;;;;;;4997988;28;20040;-58
2023/03/29 05:27:33;;;;;;;5.55;4.85;;;2.90;99.90;;;;;;4996465;28;20779;-60
2023/03/29 05:30:00;;;;;;;5.40;4.38;;;2.90;99.90;;;;;;4999094;28;20580;-57
2023/03/29 05:32:26;;;;;;;6.03;4.82;;;2.90;99.90;;;;;;4995799;28;20104;-57
2023/03/29 05:34:52;;;;;;;10.25;5.35;;;2.90;99.90;;;;;;4997310;28;20497;-60
2023/03/29 05:37:18;;;;;;;5.90;4.63;;;2.90;99.90;;;;;;5000348;28;20026;-60
2023/03/29 05:39:44;;;;;;;5.63;3.88;;;3.00;99.90;;;;;;5000888;28;20045;-58
2023/03/29 05:42:12;;;;;;;5.60;4.75;;;3.00;99.90;;;;;;4997549;28;20027;-58
2023/03/29 05:44:38;;;;;;;5.78;3.90;;;3.10;99.90;;;;;;4998063;28;20594;-59
2023/03/29 05:47:05;;;;;;;4.70;4.30;;;3.10;99.90;;;;;;4997673;28;20515;-57
2023/03/29 05:49:31;;;;;;;7.65;4.78;;;3.20;99.90;;;;;;4996120;28;20753;-58
2023/03/29 05:51:57;;;;;;;6.38;5.28;;;3.20;99.90;;;;;;4996504;28;20073;-59
2023/03/29 05:54:23;;;;;;;6.22;4.75;;;3.20;99.90;;;;;;4998565;28;20041;-60
2023/03/29 05:56:50;;;;;;;6.10;4.82;;;3.30;99.90;;;;;;4997002;28;20045;-57
2023/03/29 05:59:16;;;;;;;6.28;4.10;;;3.30;99.90;;;;;;4998127;28;20034;-60
2023/03/29 06:01:45;;;;;;;7.53;3.88;;;3.30;99.90;;;;;;4997869;28;20034;-59
2023/03/29 06:04:12;;;;;;;6.10;4.25;;;3.40;99.90;;;;;;4996160;28;20062;-59
2023/03/29 06:06:37;;;;;;;7.78;5.15;;;3.50;99.90;;;;;;4995760;28;20409;-59
2023/03/29 06:09:04;;;;;;;5.00;4.50;;;3.50;99.90;;;;;;4995106;28;20034;-59
2023/03/29 06:11:31;;;;;;;6.75;4.97;;;3.50;99.90;;;;;;4996521;28;20337;-58
2023/03/29 06:13:57;;;;;;;5.22;4.05;;;3.50;99.90;;;;;;4996734;28;20717;-57
2023/03/29 06:16:23;;;;;;;4.57;3.78;;;3.60;99.90;;;;;;4994987;28;20034;-59
2023/03/29 06:18:49;;;;;;;5.43;4.25;;;3.70;99.90;;;;;;4996533;28;21696;-57
2023/03/29 06:21:15;;;;;;;4.90;4.40;;;3.70;99.90;;;;;;4993061;28;20114;-58
2023/03/29 06:23:41;;;;;;;6.85;3.88;;;3.70;99.90;;;;;;4996536;28;20034;-57
2023/03/29 06:26:07;;;;;;;5.32;3.45;;;3.80;99.90;;;;;;4996533;28;20398;-58
2023/03/29 06:28:32;;;;;;;4.93;3.60;;;3.90;99.90;;;;;;4996337;28;20033;-58
2023/03/29 06:31:00;;;;;;;7.72;3.75;;;4.00;99.90;;;;;;4996446;28;20088;-59
2023/03/29 06:33:31;;;;;;;7.95;4.18;;;4.00;99.90;;;;;;4998929;28;20753;-59
2023/03/29 06:35:57;;;;;;;6.00;4.10;;;4.10;99.90;;;;;;4996799;28;20058;-57
2023/03/29 06:38:25;;;;;;;6.88;3.90;;;4.20;99.90;;;;;;4995005;28;20034;-57
2023/03/29 06:40:51;;;;;;;5.47;2.80;;;4.20;99.90;;;;;;4996938;28;20117;-60
2023/03/29 06:43:17;;;;;;;4.72;3.78;;;4.30;99.90;;;;;;4982381;28;20034;-58
2023/03/29 06:45:43;;;;;;;8.63;3.55;;;4.30;99.90;;;;;;4998731;28;20061;-58
2023/03/29 06:48:09;;;;;;;5.22;3.53;;;4.30;99.90;;;;;;4998776;28;20062;-60
2023/03/29 06:50:35;;;;;;;5.43;3.88;;;4.40;99.90;;;;;;4998346;28;20030;-57
2023/03/29 06:53:01;;;;;;;6.18;3.13;;;4.50;99.90;;;;;;4998844;28;20034;-58
2023/03/29 06:55:27;;;;;;;4.10;3.55;;;4.50;99.90;;;;;;5000008;28;20024;-58
2023/03/29 06:57:53;;;;;;;4.00;3.20;;;4.60;99.90;;;;;;5000991;28;20035;-58
2023/03/29 07:00:26;;;;;;;9.00;3.95;;;4.50;99.90;;;;;;4998725;28;20764;-57
2023/03/29 07:02:57;;;;;;;6.68;3.92;;;4.60;99.90;;;;;;5001820;28;20034;-57
2023/03/29 07:05:26;;;;;;;6.97;3.83;;;4.60;99.90;;;;;;5001265;28;20034;-58
2023/03/29 07:07:58;;;;;;;5.38;4.18;;;4.60;99.90;;;;;;5000719;28;20041;-57
2023/03/29 07:10:27;;;;;;;4.75;4.07;;;4.60;99.90;;;;;;5000647;28;20038;-58
2023/03/29 07:12:53;;;;;;;5.53;4.07;;;4.80;99.90;;;;;;4994765;28;20045;-59
2023/03/29 07:15:20;;;;;;;4.88;3.67;;;4.80;99.90;;;;;;4997606;28;20030;-59
2023/03/29 07:17:46;;;;;;;5.80;3.90;;;4.90;99.90;;;;;;4999288;28;20026;-59
2023/03/29 07:20:13;;;;;;;7.18;4.03;;;5.00;99.90;;;;;;4999003;28;20077;-58
2023/03/29 07:22:43;;;;;;;5.82;3.70;;;5.00;99.90;;;;;;5000920;28;20383;-57
2023/03/29 07:25:11;;;;;;;6.35;4.00;;;5.10;99.90;;;;;;5000466;28;20041;-59
2023/03/29 07:27:37;;;;;;;6.10;3.90;;;5.20;99.90;;;;;;4999208;28;20045;-58
2023/03/29 07:30:08;;;;;;;4.90;4.00;;;5.30;99.90;;;;;;4999745;28;20062;-57
2023/03/29 07:32:35;;;;;;;4.20;3.53;;;5.30;99.90;;;;;;5000743;28;20050;-57
2023/03/29 07:35:01;;;;;;;4.90;3.60;;;5.30;99.90;;;;;;4997423;28;20124;-57
2023/03/29 07:37:27;;;;;;;6.18;3.97;;;5.30;99.90;;;;;;4998987;28;20030;-56
2023/03/29 07:39:52;;;;;;;5.57;3.97;;;5.30;99.90;;;;;;4999918;28;20033;-57
2023/03/29 07:42:18;;;;;;;5.00;4.50;;;5.30;99.90;;;;;;4996069;28;20465;-57
2023/03/29 07:44:44;;;;;;;11.63;4.88;;;5.40;99.90;;;;;;4999069;28;20534;-57
2023/03/29 07:47:09;;;;;;;5.85;4.03;;;5.40;99.90;;;;;;4999977;28;20069;-58
2023/03/29 07:49:35;;;;;;;4.93;3.97;;;5.40;99.90;;;;;;5002021;28;20104;-56
2023/03/29 07:52:00;;;;;;;5.53;3.50;;;5.50;99.90;;;;;;5001101;28;20096;-57
2023/03/29 07:54:26;;;;;;;6.28;4.07;;;5.60;99.90;;;;;;4997837;28;20034;-58
2023/03/29 07:56:52;;;;;;;6.75;3.92;;;5.80;99.90;;;;;;4997376;28;20042;-57
2023/03/29 07:59:17;;;;;;;6.45;4.05;;;5.90;99.90;;;;;;5000049;28;20057;-58
2023/03/29 08:01:43;;;;;;;4.40;3.92;;;5.80;99.90;;;;;;4999964;28;20023;-58
2023/03/29 08:04:09;;;;;;;4.85;4.18;;;5.90;99.90;;;;;;5000962;28;20060;-58
2023/03/29 08:06:35;;;;;;;7.97;4.55;;;5.90;99.90;;;;;;4998082;28;20050;-58
2023/03/29 08:09:01;;;;;;;4.95;4.05;;;5.90;99.90;;;;;;4998208;28;20603;-57
2023/03/29 08:11:26;;;;;;;6.95;3.42;;;6.00;99.90;;;;;;4996735;28;20134;-59
2023/03/29 08:13:52;;;;;;;5.88;3.95;;;6.10;99.90;;;;;;5000118;28;20490;-57
2023/03/29 08:16:17;;;;;;;4.00;3.58;;;6.20;99.90;;;;;;4994464;28;20117;-57
2023/03/29 08:18:43;;;;;;;4.93;4.35;;;6.30;99.90;;;;;;4995812;28;20502;-59
2023/03/29 08:21:09;;;;;;;4.55;4.03;;;6.40;99.90;;;;;;4998948;28;20045;-60
2023/03/29 08:23:35;;;;;;;5.25;3.72;;;6.60;99.90;;;;;;4999519;28;20155;-59
2023/03/29 08:26:01;;;;;;;4.40;3.67;;;6.60;99.90;;;;;;4998031;28;20037;-59
2023/03/29 08:28:26;;;;;;;7.43;4.15;;;6.80;99.90;;;;;;5001395;28;20041;-58
2023/03/29 08:30:52;;;;;;;5.03;3.67;;;6.80;99.90;;;;;;4994098;28;20117;-59
2023/03/29 08:33:18;;;;;;;4.70;3.97;;;7.10;99.90;;;;;;4997462;28;20061;-60
2023/03/29 08:35:44;;;;;;;5.13;3.80;;;7.30;99.90;;;;;;4999657;28;20048;-59
2023/03/29 08:38:10;;;;;;;5.78;3.63;;;7.60;99.90;;;;;;4993709;28;20027;-60
2023/03/29 08:40:36;;;;;;;5.22;3.70;;;7.90;99.90;;;;;;5001408;28;20121;-58
2023/03/29 08:43:05;;;;;;;5.00;3.67;;;8.10;99.90;;;;;;4998358;28;20038;-58
2023/03/29 08:45:39;;;;;;;6.05;3.88;;;8.10;99.90;;;;;;4997307;28;20073;-61
2023/03/29 08:48:27;;;;;;;9.73;4.05;;;8.30;99.90;;;;;;5000843;28;21163;-58
2023/03/29 08:50:58;;;;;;;4.28;3.47;;;8.20;99.90;;;;;;4995902;28;20034;-57
2023/03/29 08:53:31;;;;;;;5.43;3.35;;;8.20;99.90;;;;;;4998315;28;20030;-57
2023/03/29 08:56:01;;;;;;;4.78;4.20;;;8.30;99.90;;;;;;4996917;28;20027;-59
2023/03/29 08:58:31;;;;;;;4.65;3.67;;;8.50;99.90;;;;;;4998615;28;20030;-59
2023/03/29 09:00:59;;;;;;;9.38;3.78;;;8.50;99.90;;;;;;4993969;28;20030;-59
2023/03/29 09:03:33;;;;;;;4.30;3.53;;;8.70;99.90;;;;;;4994288;28;20080;-58
2023/03/29 09:06:05;;;;;;;4.93;4.03;;;8.70;99.90;;;;;;4998698;28;20041;-58
2023/03/29 09:08:35;;;;;;;3.55;3.05;;;8.70;99.90;;;;;;4996016;28;20039;-61
2023/03/29 09:11:03;;;;;;;4.25;3.33;;;8.80;99.90;;;;;;4994086;28;20040;-60
2023/03/29 09:13:29;;;;;;;5.82;4.40;;;9.00;99.90;;;;;;4994348;28;20034;-59
2023/03/29 09:15:59;;;;;;;3.92;3.45;;;9.00;99.90;;;;;;4993666;28;20050;-57
2023/03/29 09:18:54;;;;;;;4.07;3.08;;;9.30;99.90;;;;;;4996201;28;20030;-59
2023/03/29 09:21:21;;;;;;;5.43;3.33;;;9.40;99.90;;;;;;4998189;28;20368;-58
2023/03/29 09:23:59;;;;;;;6.65;3.78;;;9.60;99.90;;;;;;4998391;28;20402;-58
2023/03/29 09:26:54;;;;;;;5.38;3.75;;;9.80;99.90;;;;;;4995904;28;20522;-57
2023/03/29 09:29:39;;;;;;;5.10;3.40;;;9.90;99.90;;;;;;4998018;28;20130;-59
2023/03/29 09:32:18;;;;;;;4.22;3.33;;;10.00;99.90;;;;;;4997782;28;20093;-59
2023/03/29 09:34:55;;;;;;;3.10;2.78;;;10.00;99.90;;;;;;4996828;28;20386;-59
2023/03/29 09:37:41;;;;;;;5.78;3.20;;;10.20;99.90;;;;;;4995364;28;20158;-59
2023/03/29 09:40:18;;;;;;;3.83;3.30;;;10.10;99.90;;;;;;4995711;28;20554;-58
2023/03/29 09:42:44;;;;;;;6.18;3.08;;;10.30;99.90;;;;;;4996195;28;21093;-59
2023/03/29 09:45:10;;;;;;;3.58;3.15;;;10.30;99.90;;;;;;4996229;28;20407;-59
2023/03/29 09:47:44;;;;;;;4.80;2.78;;;10.30;99.90;;;;;;4995998;28;20509;-58
2023/03/29 09:50:16;;;;;;;3.80;3.00;;;10.30;99.90;;;;;;4993965;28;20038;-58
2023/03/29 09:52:42;;;;;;;4.03;3.45;;;10.30;99.90;;;;;;4994797;28;20038;-60
2023/03/29 09:55:13;;;;;;;4.60;3.10;;;10.40;99.90;;;;;;4991404;28;20042;-60
2023/03/29 09:57:39;;;;;;;3.88;3.10;;;10.50;99.90;;;;;;4997522;28;20048;-58
2023/03/29 10:00:05;;;;;;;4.90;2.95;;;10.70;99.90;;;;;;4998145;28;20026;-59
2023/03/29 10:02:31;;;;;;;3.47;2.40;;;11.10;99.90;;;;;;4996854;28;20084;-59
2023/03/29 10:05:02;;;;;;;3.45;2.45;;;11.30;99.90;;;;;;4996652;28;20034;-59
2023/03/29 10:07:45;;;;;;;;;;;11.30;99.30;;;;;;4996717;28;20113;-59
2023/03/29 10:10:23;;;;;;;3.92;2.78;;;11.30;99.10;;;;;;4996752;28;19909;-59
2023/03/29 10:12:51;;;;;;;4.82;3.17;;;11.50;99.90;;;;;;4995638;28;20435;-58
2023/03/29 10:15:18;;;;;;;4.05;2.78;;;11.50;97.90;;;;;;4994405;28;20034;-58
2023/03/29 10:17:45;;;;;;;3.35;2.83;;;11.80;99.90;;;;;;4996732;28;20073;-58
2023/03/29 10:20:17;;;;;;;5.25;2.20;;;12.40;99.90;;;;;;4996359;28;20026;-61
2023/03/29 10:22:48;;;;;;;3.05;2.53;;;12.70;97.00;;;;;;4996223;28;20021;-58
2023/03/29 10:25:17;;;;;;;4.85;2.75;;;12.70;93.40;;;;;;4994143;28;20026;-59
2023/03/29 10:27:45;;;;;;;3.13;2.70;;;12.70;91.80;;;;;;5003492;28;20529;-58
2023/03/29 10:30:20;;;;;;;3.95;2.60;;;12.50;91.00;;;;;;4999990;28;20035;-59
2023/03/29 10:32:50;;;;;;;5.18;2.50;;;12.50;90.40;;;;;;4999391;28;20037;-58
2023/03/29 10:35:19;;;;;;;2.80;2.25;;;12.50;88.90;;;;;;4998434;28;20474;-60
2023/03/29 10:37:48;;;;;;;6.47;2.40;;;12.50;88.60;;;;;;5000966;28;20022;-60
2023/03/29 10:40:23;;;;;;;2.97;2.50;;;12.80;87.70;;;;;;5000062;28;20485;-58
2023/03/29 10:42:50;;;;;;;3.58;2.17;;;13.10;85.80;;;;;;4999397;28;20084;-60
2023/03/29 10:45:24;;;;;;;3.15;2.30;;;13.10;84.80;;;;;;5000774;28;20025;-60
2023/03/29 10:47:50;;;;;;;4.40;2.00;;;13.10;82.90;;;;;;4999983;28;20499;-60
2023/03/29 10:50:16;;;;;;;2.83;1.67;;;13.20;79.00;;;;;;5001301;28;20034;-60
2023/03/29 10:52:41;;;;;;;2.88;2.20;;;13.00;78.80;;;;;;5001451;28;20574;-60
2023/03/29 10:55:12;;;;;;;2.22;2.00;;;12.60;84.70;;;;;;5000739;28;20040;-58
2023/03/29 10:57:55;;;;;;;3.38;1.60;;;12.30;80.00;;;;;;5002288;28;20035;-60
2023/03/29 11:00:36;;;;;;;5.32;2.53;;;12.00;81.90;;;;;;4998711;28;20026;-59
2023/03/29 11:03:17;;;;;;;3.10;2.13;;;11.90;82.60;;;;;;4999824;28;20674;-58
2023/03/29 11:05:46;;;;;;;5.05;2.60;;;11.80;84.80;;;;;;4996931;28;20113;-60
2023/03/29 11:08:40;;;;;;;4.88;2.42;;;11.70;82.30;;;;;;4998759;28;20072;-57
2023/03/29 11:11:22;;;;;;;2.47;2.25;;;11.60;88.60;;;;;;4997654;28;20018;-58
2023/03/29 11:13:58;;;;;;;2.78;2.20;;;11.90;86.70;;;;;;5010821;28;20102;-58
2023/03/29 11:16:49;;;;;;;2.85;2.17;;;12.30;90.00;;;;;;4996067;28;20042;-60
2023/03/29 11:19:18;;;;;;;5.35;1.70;;;12.80;83.20;;;;;;5000023;28;20058;-60
2023/03/29 11:21:59;;;;;;;4.15;1.92;;;13.00;80.70;;;;;;5001328;28;20022;-59
2023/03/29 11:24:24;;;;;;;3.53;2.30;;;13.20;79.90;;;;;;4999377;28;20753;-58
2023/03/29 11:26:59;;;;;;;3.25;2.38;;;13.30;80.50;;;;;;4998239;28;20030;-59
2023/03/29 11:29:47;;;;;;;3.15;2.30;;;13.30;78.80;;;;;;5002117;28;20125;-59
2023/03/29 11:32:28;;;;;;;2.85;2.28;;;13.40;78.70;;;;;;5001563;28;20057;-60
2023/03/29 11:35:22;;;;;;;2.53;2.13;;;13.20;79.00;;;;;;5000642;28;20049;-59
2023/03/29 11:38:00;;;;;;;3.53;2.15;;;13.00;81.60;;;;;;5000958;28;20023;-59
2023/03/29 11:40:38;;;;;;;2.38;2.10;;;12.90;87.30;;;;;;4998790;28;20038;-59
2023/03/29 11:43:14;;;;;;;2.30;1.80;;;12.90;84.40;;;;;;4998316;28;20054;-59
2023/03/29 11:45:49;;;;;;;4.53;1.80;;;12.80;79.90;;;;;;4998671;28;20045;-58
2023/03/29 11:48:24;;;;;;;2.45;2.00;;;12.70;79.90;;;;;;4999419;28;20029;-60
2023/03/29 11:51:02;;;;;;;3.08;2.00;;;12.70;82.40;;;;;;4998460;28;20041;-59
2023/03/29 11:53:32;;;;;;;4.03;2.15;;;12.70;80.90;;;;;;4996076;28;20442;-59
2023/03/29 11:56:09;;;;;;;2.40;1.80;;;12.80;82.30;;;;;;4999420;28;20019;-60
2023/03/29 11:58:39;;;;;;;2.55;2.25;;;12.90;83.20;;;;;;5000421;28;20273;-59
2023/03/29 12:01:22;;;;;;;2.72;2.00;;;13.00;81.80;;;;;;4997022;28;20120;-60
2023/03/29 12:03:55;;;;;;;6.97;2.15;;;13.00;80.00;;;;;;5003470;28;20037;-59
2023/03/29 12:06:51;;;;;;;2.35;1.80;;;13.00;82.00;;;;;;5000040;28;20030;-60
2023/03/29 12:09:37;;;;;;;4.43;2.13;;;13.20;81.40;;;;;;4998054;28;20126;-61
2023/03/29 12:12:12;;;;;;;2.60;2.08;;;13.50;80.70;;;;;;4996980;28;20030;-60
2023/03/29 12:15:03;;;;;;;2.75;1.85;;;13.50;80.80;;;;;;4998711;28;20100;-60
2023/03/29 12:17:34;;;;;;;;;;;13.40;84.60;;;;;;4999061;28;20041;-58
2023/03/29 12:20:03;;;;;;;4.30;1.83;;;13.30;80.90;;;;;;4996633;28;20338;-59
2023/03/29 12:22:29;;;;;;;2.67;1.70;;;13.30;83.50;;;;;;4999077;28;20065;-58
2023/03/29 12:24:56;;;;;;;3.20;1.40;;;13.20;81.00;;;;;;4998709;28;20030;-59
2023/03/29 12:27:48;;;;;;;1.90;1.20;;;13.10;85.80;;;;;;4995636;28;20030;-60
2023/03/29 12:30:33;;;;;;;2.45;1.77;;;12.90;82.70;;;;;;4998251;28;20109;-58
2023/03/29 12:33:26;;;;;;;2.90;1.58;;;13.10;83.00;;;;;;4998839;28;20037;-58
2023/03/29 12:35:55;;;;;;;4.60;1.65;;;13.20;82.90;;;;;;4998359;28;20034;-59
2023/03/29 12:38:29;;;;;;;3.47;1.90;;;13.20;80.80;;;;;;4998065;28;20026;-60
2023/03/29 12:40:57;;;;;;;2.20;1.50;;;13.20;81.70;;;;;;4997232;28;20042;-60
2023/03/29 12:43:25;;;;;;;3.67;1.60;;;13.00;84.20;;;;;;4996763;28;20026;-59
2023/03/29 12:46:32;;;;;;;2.45;1.52;;;12.90;80.90;;;;;;4997122;28;20026;-58
2023/03/29 12:49:10;;;;;;;1.98;1.50;;;12.90;82.30;;;;;;4997204;28;20045;-59
2023/03/29 12:51:40;;;;;;;3.53;1.35;;;12.80;82.40;;;;;;4997247;28;20035;-59
2023/03/29 12:54:19;;;;;;;2.65;1.40;;;12.80;82.60;;;;;;4995647;28;20381;-59
2023/03/29 12:56:51;;;;;;;2.58;1.38;;;12.90;81.40;;;;;;4996240;28;20109;-59
2023/03/29 12:59:32;;;;;;;2.30;1.00;;;13.00;83.10;;;;;;4999527;28;20038;-60
2023/03/29 13:02:22;;;;;;;2.40;1.30;;;13.20;82.60;;;;;;4997395;28;20530;-59
2023/03/29 13:04:53;;;;;;;1.48;1.27;;;13.40;82.60;;;;;;4998043;28;20054;-58
2023/03/29 13:07:22;;;;;;;2.85;1.40;;;13.40;80.80;;;;;;4996447;28;20935;-59
2023/03/29 13:10:01;;;;;;;3.03;1.23;;;13.30;80.00;;;;;;4997710;28;20038;-58
2023/03/29 13:12:41;;;;;;;2.00;1.30;;;13.20;80.60;;;;;;4994869;28;20021;-60